Tiempo atmosférico en la estación meteorológica de Planoles, Girona (1149 m.)



Fecha
DESCASC
Temp. máxima en grados centígrados (hora)
DESCASC
Temp. mínima en grados centígrados (hora)
DESCASC
Temp. media en grados centígrados
DESCASC
Racha de viento máxima en m/sg (hora)
DESCASC
Velocidad máxima media en intervalos de 10 minutos(hora)
DESCASC
Precipitaciones diarias en mm
DESCASC
Precipitaciones de 00:00 a 06:00 en mm
DESCASC
Precipitaciones de 06:00 a 12:00 en mm
DESCASC
Precipitaciones de 12:00 a 18:00 en mm
DESCASC
Precipitaciones de 18:00 a 24:00 en mm
DESCASC
31-05-2020 20.2 (14:20) 10.8 (07:20) 15.5 8.33 (13:50) 5 (13:20) 13.8 0 0 0 13.8
30-05-2020 18.8 (12:20) 7.6 (07:00) 13.2 8.06 (11:30) 5 (12:30) 0.8 0 0.2 0.2 0.4
29-05-2020 22.3 (14:30) 9.6 (07:10) 15.9 8.89 (15:20) 5 (15:20) 1.2 0 0 1.2 0
28-05-2020 21.9 (14:50) 8.7 (00:00) 15.3 9.17 (13:10) 4.72 (13:10) 0 0 0 0 0
27-05-2020 22.4 (13:30) 8.3 (00:00) 15.3 8.89 (15:10) 5 (15:20) 0 0 0 0 0
26-05-2020 23.5 (16:00) 7.7 (00:00) 15.6 7.5 (14:00) 3.89 (14:00) 0 0 0 0 0
25-05-2020 21.4 (16:10) 11.1 (00:00) 16.3 8.33 (14:00) 3.89 (14:00) -- -- -- 0 0
24-05-2020 20 (13:10) 12.4 (00:00) 16.2 10 (13:50) 5.28 (13:40) -- -- -- -- --
23-05-2020 24.8 (15:20) 12.3 (00:00) 18.5 8.61 (20:10) 5 (16:20) -- -- -- -- --
22-05-2020 25.5 (14:50) 11.5 (00:00) 18.5 11.67 (15:30) 5.56 (15:20) -- -- -- -- --
21-05-2020 24.9 (15:20) 9 (00:00) 16.9 8.06 (16:30) 4.44 (16:20) 0 0 0 0 0
20-05-2020 24.7 (15:00) 9 (00:00) 16.9 8.89 (15:40) 4.72 (15:20) 0 0 0 0 0
19-05-2020 23.3 (16:50) 8.3 (00:00) 15.8 11.11 (16:10) 5.83 (16:00) 0 0 0 0 0
18-05-2020 20.4 (17:10) 5.8 (00:00) 13.1 7.5 (20:10) 3.89 (12:20) 0.6 0.2 0.2 0.2 0
17-05-2020 19.7 (16:40) 6.3 (00:00) 13 11.39 (11:50) 5.83 (11:50) 1 0.2 0.2 0.4 0.2
16-05-2020 14.8 (12:10) 5.9 (00:00) 10.4 6.67 (12:20) 4.17 (12:30) 1.8 0.4 0.4 0.6 0.4
15-05-2020 16.1 (14:10) 6 (00:00) 11.1 7.78 (17:00) 3.89 (17:00) 1.4 0.2 0.2 0.4 0.6
14-05-2020 15.4 (11:40) 7.2 (00:00) 11.3 7.5 (13:00) 3.89 (13:00) 0.8 0.2 0.2 0.2 0.2
13-05-2020 18.6 (17:10) 8 (00:00) 13.3 7.5 (13:00) 4.44 (13:00) 6 1.4 2 2.2 0.4
12-05-2020 18.4 (15:30) 4.8 (00:00) 11.6 12.78 (15:30) 4.72 (13:00) 0 0 0 0 0
11-05-2020 15.2 (17:20) 5.7 (00:00) 10.4 10 (17:50) 5.83 (17:50) 0.4 0.4 0 0 0
10-05-2020 12.5 (00:00) 8.1 (00:00) 10.3 12.78 (15:00) 5.56 (11:30) 61 0 20.2 29.2 11.6
09-05-2020 19 (17:30) 8.2 (00:00) 13.6 8.61 (13:30) 4.72 (13:30) 0 0 0 0 0
08-05-2020 22.5 (16:20) 9.5 (00:00) 16 9.17 (13:50) 4.44 (14:20) 0 0 0 0 0
07-05-2020 21.7 (15:40) 11.2 (00:00) 16.5 8.89 (12:40) 4.72 (12:10) 0 0 0 0 0
06-05-2020 22 (13:30) 7.5 (00:00) 14.8 8.61 (12:20) 5 (14:20) 0 0 0 0 0
05-05-2020 23.5 (12:30) 10.2 (00:00) 16.8 7.5 (11:50) 3.89 (11:50) 0 0 0 0 0
04-05-2020 25 (15:40) 9.3 (00:00) 17.2 9.17 (16:50) 5 (16:40) 0 0 0 0 0
03-05-2020 21.8 (14:40) 7.8 (00:00) 14.8 9.17 (15:20) 5 (15:20) 0 0 0 0 0

Gráficas

Temp. máximas Temp. mínimas Temp. medias Precipitaciones Rachas de viento máximas Velocidades máximas media en intervalos de 10 minutos

Datos horarios

Fecha y hora oficial Temperatura (ºC) Velocidad del viento (km/h) Dirección del viento Racha (km/h) Dirección de racha Precipitación (mm) Presión (hPa) Tendencia (hPa) Humedad (%)
2020-06-01 23:00:00 11.1 2 Oeste 6 Norte 0 -- -- 96
2020-06-01 22:00:00 11.5 5 Oeste 8 Oeste 2.8 -- -- 96
2020-06-01 21:00:00 11.7 2 Oeste 11 Noroeste 5.2 -- -- 95
2020-06-01 20:00:00 12.3 4 Noroeste 10 Oeste 3.8 -- -- 95
2020-06-01 19:00:00 13.4 3 Sur 9 Oeste 2.2 -- -- 91
2020-06-01 18:00:00 14.7 5 Sudeste 17 Este 0 -- -- 89
2020-06-01 17:00:00 15.8 6 Sudeste 12 Sudeste 0 -- -- 86
2020-06-01 16:00:00 15 5 Sur 34 Sudeste 6.8 -- -- 82
2020-06-01 15:00:00 18.5 12 Este 26 Este 0 -- -- 68
2020-06-01 14:00:00 20 10 Sudeste 23 Sudeste 0 -- -- 66
2020-06-01 13:00:00 18.2 10 Este 25 Este 0 -- -- 68
2020-06-01 12:00:00 18.2 10 Este 23 Este 0.2 -- -- 69
2020-06-01 11:00:00 17.9 8 Este 17 Este 0 -- -- 71
2020-06-01 10:00:00 14.9 0 Calma 8 Este 0 -- -- 83
2020-06-01 09:00:00 12.4 0 Calma 0 Calma 0 -- -- 90
2020-06-01 08:00:00 10.7 0 Calma 0 Calma 0 -- -- 96
2020-06-01 07:00:00 9.2 0 Calma 0 Calma 0 -- -- 97
2020-06-01 06:00:00 10 0 Calma 0 Calma 0 -- -- 95
2020-06-01 05:00:00 10.4 0 Calma 4 Este 0 -- -- 95
2020-06-01 04:00:00 10.6 3 Noroeste 7 Noroeste 0 -- -- 95
2020-06-01 03:00:00 11.3 0 Calma 8 Noroeste 0 -- -- 93
2020-06-01 02:00:00 12.2 0 Calma 8 Noroeste 0 -- -- 94
2020-06-01 01:00:00 12.7 3 Este 9 Este 0 -- -- 94
2020-06-01 00:00:00 13.5 4 Sudeste 8 Este 0 -- -- 96
2020-05-31 23:00:00 13.7 4 Este 11 Nordeste 0 -- -- 94
2020-05-31 22:00:00 14.2 3 Sudeste 18 Este 13.8 -- -- 93
2020-05-31 21:00:00 15.7 9 Este 20 Este 0 -- -- 85
2020-05-31 20:00:00 17.4 8 Este 18 Este 0 -- -- 74
2020-05-31 19:00:00 18.1 8 Este 18 Este 0 -- -- 71
2020-05-31 18:00:00 18.6 10 Este 21 Este 0 -- -- 69
2020-05-31 17:00:00 19.2 7 Sudeste 21 Este 0 -- -- 61
2020-05-31 16:00:00 19.1 9 Este 26 Este 0 -- -- 63
2020-05-31 15:00:00 19.2 14 Este 27 Este 0 -- -- 63
2020-05-31 14:00:00 19.3 16 Este 30 Este 0 -- -- 66
2020-05-31 13:00:00 20 17 Este 28 Este 0 -- -- 65
2020-05-31 12:00:00 19.5 13 Este 27 Este 0 -- -- 69
2020-05-31 11:00:00 18 17 Este 28 Este 0 -- -- 75
2020-05-31 10:00:00 17.2 0 Calma 2 Sudeste 0 -- -- 73
2020-05-31 09:00:00 14.9 0 Calma 0 Calma 0 -- -- 82
2020-05-31 08:00:00 12.5 0 Calma 0 Calma 0 -- -- 91
2020-05-31 07:00:00 11.2 0 Calma 0 Calma 0 -- -- 96
2020-05-31 06:00:00 11.9 0 Calma 0 Calma 0 -- -- 95
2020-05-31 05:00:00 12.1 0 Calma 0 Calma 0 -- -- 94
2020-05-31 04:00:00 12.3 0 Calma 0 Calma 0 -- -- 94
2020-05-31 03:00:00 12.8 0 Calma 0 Calma 0 -- -- 94
2020-05-31 02:00:00 13.3 0 Calma 0 Calma 0 -- -- 96
2020-05-31 01:00:00 13.4 0 Calma 0 Calma 0 -- -- 96
2020-05-31 00:00:00 13.5 0 Calma 4 Este 0 -- -- 95
2020-05-30 23:00:00 13.7 0 Calma 4 Sudoeste 0 -- -- 95
2020-05-30 22:00:00 13.7 2 Sudeste 5 Sudoeste 0 -- -- 95
2020-05-30 21:00:00 14 0 Calma 4 Sudoeste 0 -- -- 93
2020-05-30 20:00:00 14.4 0 Calma 5 Sudoeste 0 -- -- 93
2020-05-30 19:00:00 14.6 0 Calma 8 Oeste 0.4 -- -- 90
2020-05-30 18:00:00 15.2 5 Este 12 Este 0.2 -- -- 83
2020-05-30 17:00:00 15.7 6 Sudeste 18 Este 0 -- -- 78
2020-05-30 16:00:00 16.9 11 Este 19 Este 0 -- -- 74
2020-05-30 15:00:00 16.3 9 Este 25 Este 0 -- -- 75
2020-05-30 14:00:00 17.9 15 Este 28 Este 0 -- -- 71
2020-05-30 13:00:00 17.9 12 Este 29 Este 0 -- -- 68
2020-05-30 12:00:00 18 14 Este 29 Este 0 -- -- 70
2020-05-30 11:00:00 17.1 15 Este 28 Este 0 -- -- 72
2020-05-30 10:00:00 15.8 0 Calma 2 Este 0 -- -- 71
2020-05-30 09:00:00 13.3 0 Calma 2 Este 0.2 -- -- 74
2020-05-30 08:00:00 10 0 Calma 2 Oeste 0 -- -- 83
2020-05-30 07:00:00 7.6 0 Calma 0 Calma 0 -- -- 89
2020-05-30 06:00:00 8.3 0 Calma 2 Noroeste 0 -- -- 89
2020-05-30 05:00:00 9 0 Calma 3 Noroeste 0 -- -- 85
2020-05-30 04:00:00 9.9 0 Calma 3 Noroeste 0 -- -- 84
2020-05-30 03:00:00 10.7 0 Calma 3 Noroeste 0 -- -- 84
2020-05-30 02:00:00 11.1 0 Calma 3 Noroeste 0 -- -- 88
2020-05-30 01:00:00 11.7 0 Calma 0 Calma 0 -- -- 91
2020-05-30 00:00:00 12.5 0 Calma 7 Oeste 0 -- -- 92
2020-05-29 23:00:00 12.9 0 Calma 6 Sudeste 0 -- -- 92
2020-05-29 22:00:00 13.5 0 Calma 5 Sudeste 0 -- -- 90
2020-05-29 21:00:00 14.1 0 Calma 8 Noroeste 0 -- -- 89
2020-05-29 20:00:00 14.8 0 Calma 9 Este 0 -- -- 81
2020-05-29 19:00:00 15.4 2 Sudeste 17 Este 0 -- -- 78
2020-05-29 18:00:00 16.8 8 Este 13 Sudeste 0 -- -- 78
2020-05-29 17:00:00 16.5 5 Sudoeste 9 Oeste 0 -- -- 86
2020-05-29 16:00:00 17 4 Nordeste 32 Este 1.2 -- -- 76
2020-05-29 15:00:00 21.6 9 Sudeste 26 Este 0 -- -- 55
2020-05-29 14:00:00 21.2 10 Este 28 Este 0 -- -- 56
2020-05-29 13:00:00 21.5 12 Este 27 Este 0 -- -- 54
2020-05-29 12:00:00 21 15 Este 25 Este 0 -- -- 53
2020-05-29 11:00:00 20.5 9 Este 21 Este 0 -- -- 56
2020-05-29 10:00:00 18.7 6 Este 13 Sudeste 0 -- -- 64
2020-05-29 09:00:00 15.3 0 Calma 4 Sudeste 0 -- -- 79
2020-05-29 08:00:00 11.8 0 Calma 7 Noroeste 0 -- -- 86
2020-05-29 07:00:00 9.7 0 Calma 7 Noroeste 0 -- -- 91
2020-05-29 06:00:00 9.9 0 Calma 6 Noroeste 0 -- -- 90
2020-05-29 05:00:00 10.2 5 Noroeste 10 Oeste 0 -- -- 90
2020-05-29 04:00:00 10.5 3 Noroeste 9 Noroeste 0 -- -- 90
2020-05-29 03:00:00 11.4 4 Noroeste 12 Noroeste 0 -- -- 87
2020-05-29 02:00:00 11.9 6 Noroeste 11 Noroeste 0 -- -- 86
2020-05-29 01:00:00 11.9 5 Noroeste 11 Noroeste 0 -- -- 86
2020-05-29 00:00:00 12.9 3 Norte 8 Noroeste 0 -- -- 82
2020-05-28 23:00:00 14.6 2 Nordeste 9 Este 0 -- -- 74
2020-05-28 22:00:00 15.9 5 Este 14 Este 0 -- -- 73
2020-05-28 21:00:00 16.9 7 Este 15 Este 0 -- -- 73
2020-05-28 20:00:00 18.2 7 Este 17 Este 0 -- -- 68
2020-05-28 19:00:00 19.1 4 Este 19 Este 0 -- -- 63
2020-05-28 18:00:00 19.7 9 Este 18 Sudeste 0 -- -- 57
2020-05-28 17:00:00 20.5 8 Este 23 Este 0 -- -- 56
2020-05-28 16:00:00 20.1 6 Sudeste 23 Sudeste 0 -- -- 57
2020-05-28 15:00:00 21.3 8 Sudeste 22 Este 0 -- -- 55
2020-05-28 14:00:00 19.4 4 Sudoeste 33 Este 0 -- -- 60
2020-05-28 13:00:00 20.5 15 Este 29 Este 0 -- -- 58
2020-05-28 12:00:00 20.3 13 Este 26 Este 0 -- -- 61
2020-05-28 11:00:00 18.9 13 Este 20 Este 0 -- -- 66
2020-05-28 10:00:00 16.9 0 Calma 2 Este 0 -- -- 70
2020-05-28 09:00:00 13.7 0 Calma 0 Calma 0 -- -- 80
2020-05-28 08:00:00 10.5 0 Calma 0 Calma 0 -- -- 85
2020-05-28 07:00:00 8.8 0 Calma 0 Calma 0 -- -- 85
2020-05-28 06:00:00 9 0 Calma 0 Calma 0 -- -- 89
2020-05-28 05:00:00 9.9 0 Calma 2 Noroeste 0 -- -- 86
2020-05-28 04:00:00 10.4 0 Calma 2 Oeste 0 -- -- 84
2020-05-28 03:00:00 11.6 0 Calma 0 Calma 0 -- -- 88
2020-05-28 02:00:00 12.5 0 Calma 0 Calma 0 -- -- 90
2020-05-28 01:00:00 12.9 0 Calma 4 Noroeste 0 -- -- 88
2020-05-28 00:00:00 13.3 0 Calma 5 Noroeste 0 -- -- 87
2020-05-27 23:00:00 14.3 0 Calma 6 Sudeste 0 -- -- 84
2020-05-27 22:00:00 15.9 2 Este 11 Este 0 -- -- 78
2020-05-27 21:00:00 16.7 6 Este 12 Este 0 -- -- 75
2020-05-27 20:00:00 17.1 3 Sudeste 8 Este 0 -- -- 72
2020-05-27 19:00:00 17.9 5 Este 19 Este 0 -- -- 66
2020-05-27 18:00:00 19.3 8 Sudeste 19 Este 0 -- -- 59
2020-05-27 17:00:00 19.2 6 Sudeste 18 Este 0 -- -- 61
2020-05-27 16:00:00 19.1 7 Este 32 Este 0 -- -- 59
2020-05-27 15:00:00 21.3 14 Este 30 Este 0 -- -- 51
2020-05-27 14:00:00 21.1 13 Este 28 Este 0 -- -- 45
2020-05-27 13:00:00 21.9 15 Este 31 Este 0 -- -- 43
2020-05-27 12:00:00 21.4 11 Este 21 Este 0 -- -- 45
2020-05-27 11:00:00 19.9 8 Este 17 Este 0 -- -- 50
2020-05-27 10:00:00 17.1 2 Sudoeste 6 Sudeste 0 -- -- 54
2020-05-27 09:00:00 14.4 0 Calma 6 Noroeste 0 -- -- 62
2020-05-27 08:00:00 10.4 3 Noroeste 8 Noroeste 0 -- -- 68
2020-05-27 07:00:00 8.4 0 Calma 8 Noroeste 0 -- -- 76
2020-05-27 06:00:00 8.4 4 Noroeste 8 Noroeste 0 -- -- 76
2020-05-27 05:00:00 8.6 0 Calma 10 Noroeste 0 -- -- 72
2020-05-27 04:00:00 8.7 3 Oeste 10 Noroeste 0 -- -- 72
2020-05-27 03:00:00 9.4 3 Nordeste 10 Noroeste 0 -- -- 73
2020-05-27 02:00:00 10.1 5 Noroeste 11 Noroeste 0 -- -- 68
2020-05-27 01:00:00 11.3 5 Oeste 15 Noroeste 0 -- -- 74
2020-05-27 00:00:00 12.4 5 Noroeste 16 Noroeste 0 -- -- 80
2020-05-26 23:00:00 13.6 6 Noroeste 12 Noroeste 0 -- -- 78
2020-05-26 22:00:00 16 0 Calma 8 Noroeste 0 -- -- 73
2020-05-26 21:00:00 18.1 4 Noroeste 18 Este 0 -- -- 66
2020-05-26 20:00:00 19.9 5 Este 20 Sudeste 0 -- -- 59
2020-05-26 19:00:00 21.4 11 Este 24 Este 0 -- -- 54
2020-05-26 18:00:00 21.1 9 Este 24 Sudeste 0 -- -- 54
2020-05-26 17:00:00 21.8 6 Sudeste 23 Este 0 -- -- 54
2020-05-26 16:00:00 23.5 13 Este 26 Este 0 -- -- 52
2020-05-26 15:00:00 21.2 10 Sudeste 23 Este 0 -- -- 56
2020-05-26 14:00:00 21.8 14 Este 27 Este 0 -- -- 53
2020-05-26 13:00:00 22.4 12 Este 26 Este 0.2 -- -- 48
2020-05-26 12:00:00 21.2 10 Este 19 Este 0 -- -- 56
2020-05-26 11:00:00 19.3 8 Sudeste 16 Este 0 -- -- 53
2020-05-26 10:00:00 16.7 2 Sur 7 Sur 0 -- -- 61
2020-05-26 09:00:00 13.5 0 Calma 0 Calma 0 -- -- 73
2020-05-26 08:00:00 10 0 Calma 6 Noroeste 0 -- -- 81
2020-05-26 07:00:00 7.8 2 Nordeste 4 Nordeste 0 -- -- 86
2020-05-26 06:00:00 8 0 Calma 8 Noroeste 0 -- -- 86
2020-05-26 05:00:00 8.5 4 Noroeste 11 Noroeste 0 -- -- 85
2020-05-26 04:00:00 9 0 Calma 9 Noroeste 0 -- -- 89
2020-05-26 03:00:00 9.8 5 Noroeste 15 Oeste 0 -- -- 86
2020-05-26 02:00:00 9.7 6 Noroeste 13 Noroeste 0 -- -- 89
2020-05-26 01:00:00 10.6 3 Noroeste 10 Noroeste 0 -- -- 88
2020-05-26 00:00:00 11.1 6 Noroeste 10 Noroeste 0 -- -- 88
2020-05-25 23:00:00 12.2 4 Noroeste 9 Noroeste 0 -- -- 83
2020-05-25 22:00:00 14.3 0 Calma 5 Oeste 0 -- -- 83
2020-05-25 21:00:00 16.4 0 Calma 8 Este 0 -- -- 77
2020-05-25 20:00:00 17.5 5 Nordeste 10 Este 0 -- -- 68
2020-05-25 19:00:00 18.3 5 Este 14 Este 0 -- -- 68
2020-05-25 18:00:00 19 11 Este 24 Este 0 -- -- 66
2020-05-25 17:00:00 20.4 8 Sudeste 25 Este 0 -- -- 64
2020-05-25 16:00:00 21.1 10 Este 24 Este 0 -- -- 61
2020-05-25 15:00:00 20.7 12 Este 27 Este 0 -- -- 64
2020-05-25 14:00:00 20.5 14 Este 30 Este 0 -- -- 63
2020-05-25 13:00:00 19.6 13 Este 24 Este 0 -- -- 65
2020-05-25 12:00:00 18.2 0 Calma 2 Nordeste 0 -- -- 71
2020-05-25 11:00:00 15.8 0 Calma 2 Sudeste 0 -- -- 74
2020-05-25 10:00:00 14.2 0 Calma 2 Sudeste 0 -- -- 77
2020-05-25 09:00:00 13.8 0 Calma 2 Nordeste 0 -- -- 89
2020-05-25 08:00:00 13.7 0 Calma 0 Calma 0 -- -- 93
2020-05-25 07:00:00 13.2 0 Calma 0 Calma 0 -- -- 94
2020-05-25 06:00:00 13.1 0 Calma 0 Calma 0 -- -- 94
2020-05-25 05:00:00 13.2 0 Calma 0 Calma 0 -- -- 93
2020-05-25 04:00:00 13.4 0 Calma 0 Calma 0 -- -- 92
2020-05-25 03:00:00 14.1 0 Calma 0 Calma 0 -- -- 89
2020-05-25 02:00:00 14.5 0 Calma 0 Calma 0 -- -- 89
2020-05-25 01:00:00 14.6 0 Calma 0 Calma 0 -- -- 88
2020-05-25 00:00:00 15.1 0 Calma 0 Calma 0 -- -- 88
2020-05-24 23:00:00 15.4 0 Calma 5 Sudeste 0 -- -- 87
2020-05-24 22:00:00 15.8 0 Calma 5 Este 0 -- -- 84
2020-05-24 21:00:00 16.2 3 Sudeste 8 Este 0 -- -- 82
2020-05-24 20:00:00 16.7 4 Este 14 Este 0 -- -- 80
2020-05-24 19:00:00 17.2 5 Sudeste 19 Este 0 -- -- 78
2020-05-24 18:00:00 18 11 Este 21 Este 0.2 -- -- 75
2020-05-24 17:00:00 18.9 12 Este 25 Este 0 -- -- 72
2020-05-24 16:00:00 19.9 14 Este 24 Este 0 -- -- 68
2020-05-24 15:00:00 18.6 9 Este 30 Este 0 -- -- 73
2020-05-24 14:00:00 18.8 18 Este 36 Este 0 -- -- 71
2020-05-24 13:00:00 19.8 17 Este 27 Este 0 -- -- 70
2020-05-24 12:00:00 18.9 13 Este 25 Este 0 -- -- 74
2020-05-24 11:00:00 18.1 9 Este 17 Este 0 -- -- 76
2020-05-24 10:00:00 15.7 6 Este 12 Este 0 -- -- 81
2020-05-24 09:00:00 13.9 4 Sudeste 19 Este 0 -- -- 88
2020-05-24 08:00:00 13.4 2 Norte 7 Sudeste 0.2 -- -- 92
2020-05-24 07:00:00 12.5 0 Calma 5 Oeste 0 -- -- 95
2020-05-24 06:00:00 13 2 Sudeste 8 Este 0 -- -- 93
2020-05-24 05:00:00 13.3 0 Calma 5 Sudeste 0 -- -- 96
2020-05-24 04:00:00 14 0 Calma 6 Sudoeste 0 -- -- 95
2020-05-24 03:00:00 14.2 3 Norte 7 Este 0.2 -- -- 94
2020-05-24 02:00:00 14.6 3 Sudeste 6 Nordeste 0 -- -- 94
2020-05-24 01:00:00 14.7 4 Este 9 Este 0 -- -- 94
2020-05-24 00:00:00 15.1 4 Sudeste 9 Este 0.2 -- -- 94
2020-05-23 23:00:00 15.5 0 Calma 10 Este 0.2 -- -- 92
2020-05-23 22:00:00 15.8 3 Sudeste 11 Este 0.2 -- -- 93
2020-05-23 21:00:00 16.6 4 Este 31 Este 0.6 -- -- 89
2020-05-23 20:00:00 18.7 12 Este 24 Este 0 -- -- 74
2020-05-23 19:00:00 20.4 12 Este 30 Este 0 -- -- 68
2020-05-23 18:00:00 22.4 6 Este 27 Este 0 -- -- 59
2020-05-23 17:00:00 23.7 13 Este 29 Este 0 -- -- 48
2020-05-23 16:00:00 24.1 12 Sudeste 25 Este 0 -- -- 42
2020-05-23 15:00:00 24.7 8 Sudeste 24 Este 0 -- -- 42
2020-05-23 14:00:00 24.4 10 Este 27 Este 0 -- -- 43
2020-05-23 13:00:00 24.4 17 Este 28 Este 0 -- -- 45
2020-05-23 12:00:00 23.6 14 Este 24 Este 0 -- -- 48
2020-05-23 11:00:00 22.7 8 Este 17 Sudeste 0 -- -- 54
2020-05-23 10:00:00 20.2 3 Sudeste 6 Sudeste 0 -- -- 61
2020-05-23 09:00:00 17.5 0 Calma 8 Este 0 -- -- 70
2020-05-23 08:00:00 15 0 Calma 10 Noroeste 0 -- -- 76
2020-05-23 07:00:00 12.9 2 Noroeste 9 Noroeste 0 -- -- 78
2020-05-23 06:00:00 12.4 3 Oeste 9 Norte 0 -- -- 81
2020-05-23 05:00:00 12.5 3 Oeste 10 Noroeste 0 -- -- 83
2020-05-23 04:00:00 12.3 0 Calma 6 Noroeste 0 -- -- 85
2020-05-23 03:00:00 12.7 5 Noroeste 11 Noroeste 0 -- -- 84
2020-05-23 02:00:00 13.3 4 Norte 12 Oeste 0 -- -- 83
2020-05-23 01:00:00 14 5 Noroeste 14 Noroeste 0 -- -- 81
2020-05-23 00:00:00 14.9 5 Noroeste 13 Noroeste 0 -- -- 81
2020-05-22 23:00:00 16 5 Noroeste 11 Norte 0 -- -- 79
2020-05-22 22:00:00 18.4 3 Norte 10 Este 0 -- -- 72
2020-05-22 21:00:00 20.7 6 Este 17 Este 0 -- -- 65
2020-05-22 20:00:00 22.6 3 Sudoeste 17 Este 0 -- -- 62
2020-05-22 19:00:00 23.5 9 Este 18 Este 0 -- -- 61
2020-05-22 18:00:00 23.9 8 Este 17 Sudeste 0 -- -- 56
2020-05-22 17:00:00 23.3 4 Noroeste 32 Sudeste 0 -- -- 56
2020-05-22 16:00:00 24.8 14 Este 42 Este 0 -- -- 49
2020-05-22 15:00:00 25.3 13 Este 30 Este 0 -- -- 52
2020-05-22 14:00:00 25 15 Este 32 Este 0 -- -- 50
2020-05-22 13:00:00 24.4 14 Este 24 Este 0 -- -- 50
2020-05-22 12:00:00 24.4 13 Este 22 Este 0 -- -- 49
2020-05-22 11:00:00 23 8 Este 22 Este 0 -- -- 51
2020-05-22 10:00:00 20 3 Sur 6 Sudeste 0 -- -- 55
2020-05-22 09:00:00 16.6 0 Calma 2 Sudoeste 0 -- -- 70
2020-05-22 08:00:00 13.2 0 Calma 10 Noroeste 0 -- -- 77
2020-05-22 07:00:00 11.6 0 Calma 6 Noroeste 0 -- -- 81
2020-05-22 06:00:00 11.7 3 Oeste 6 Noroeste 0 -- -- 80
2020-05-22 05:00:00 11.9 0 Calma 4 Oeste 0 -- -- 82
2020-05-22 04:00:00 12.6 0 Calma 13 Noroeste 0 -- -- 81
2020-05-22 03:00:00 13.2 8 Noroeste 15 Noroeste 0 -- -- 78
2020-05-22 02:00:00 13 6 Noroeste 13 Noroeste 0 -- -- 80
2020-05-22 01:00:00 13.9 7 Noroeste 13 Oeste 0 -- -- 76
2020-05-22 00:00:00 15 9 Noroeste 15 Noroeste 0 -- -- 75
2020-05-21 23:00:00 15.7 9 Noroeste 14 Noroeste 0 -- -- 74
2020-05-21 22:00:00 17.5 4 Norte 8 Norte 0 -- -- 68
2020-05-21 21:00:00 19.8 0 Calma 14 Este 0 -- -- 62
2020-05-21 20:00:00 21.8 6 Sudeste 23 Este 0 -- -- 55
2020-05-21 19:00:00 23.7 14 Este 24 Este 0 -- -- 48
2020-05-21 18:00:00 24 10 Sudeste 22 Este 0 -- -- 46
2020-05-21 17:00:00 23.8 10 Este 29 Este 0 -- -- 43
2020-05-21 16:00:00 24.4 12 Este 25 Este 0 -- -- 41
2020-05-21 15:00:00 24.2 12 Este 27 Este 0 -- -- 43
2020-05-21 14:00:00 23.8 12 Este 29 Este 0 -- -- 44
2020-05-21 13:00:00 23.9 11 Este 25 Nordeste 0 -- -- 42
2020-05-21 12:00:00 23.3 10 Este 19 Este 0 -- -- 40
2020-05-21 11:00:00 22 9 Este 17 Este 0 -- -- 45
2020-05-21 10:00:00 18.9 3 Sudeste 6 Este 0 -- -- 45
2020-05-21 09:00:00 15.2 0 Calma 5 Sudeste 0 -- -- 56
2020-05-21 08:00:00 11.6 3 Noroeste 6 Norte 0 -- -- 59
2020-05-21 07:00:00 9.7 0 Calma 9 Noroeste 0 -- -- 64
2020-05-21 06:00:00 9 0 Calma 3 Oeste 0 -- -- 66
2020-05-21 05:00:00 9.5 2 Sudoeste 6 Oeste 0 -- -- 66
2020-05-21 04:00:00 10.1 4 Noroeste 9 Noroeste 0 -- -- 66
2020-05-21 03:00:00 10.6 5 Noroeste 12 Noroeste 0 -- -- 65
2020-05-21 02:00:00 11.3 2 Este 8 Noroeste 0 -- -- 73
2020-05-21 01:00:00 12.3 5 Noroeste 14 Noroeste 0.2 -- -- 74
2020-05-21 00:00:00 13.1 6 Noroeste 16 Noroeste 0 -- -- 69
2020-05-20 23:00:00 14 8 Noroeste 14 Noroeste 0 -- -- 70
2020-05-20 22:00:00 16.5 2 Noroeste 9 Norte 0 -- -- 60
2020-05-20 21:00:00 18.9 5 Nordeste 14 Este 0 -- -- 51
2020-05-20 20:00:00 21.3 5 Sudeste 21 Este 0 -- -- 47
2020-05-20 19:00:00 22.8 13 Este 23 Este 0 -- -- 41
2020-05-20 18:00:00 23 9 Este 22 Sudeste 0 -- -- 39
2020-05-20 17:00:00 23.8 9 Sudeste 23 Este 0 -- -- 35
2020-05-20 16:00:00 23.7 14 Este 32 Este 0 -- -- 34
2020-05-20 15:00:00 24.7 12 Este 30 Este 0 -- -- 33
2020-05-20 14:00:00 24.1 10 Este 27 Este 0 -- -- 31
2020-05-20 13:00:00 23.6 12 Este 20 Este 0 -- -- 33
2020-05-20 12:00:00 22.8 13 Este 21 Este 0 -- -- 30
2020-05-20 11:00:00 21.5 5 Este 19 Este 0.2 -- -- 26
2020-05-20 10:00:00 19.2 5 Oeste 11 Oeste 0 -- -- 36
2020-05-20 09:00:00 15.3 2 Sudoeste 12 Oeste 0 -- -- 48
2020-05-20 08:00:00 11.2 4 Noroeste 11 Noroeste 0 -- -- 52
2020-05-20 07:00:00 9 4 Oeste 17 Este 0 -- -- 58
2020-05-20 06:00:00 10.3 7 Nordeste 15 Noroeste 0 -- -- 53
2020-05-20 05:00:00 10.6 3 Noroeste 12 Noroeste 0 -- -- 57
2020-05-20 04:00:00 12.6 3 Noroeste 22 Noroeste 0 -- -- 54
2020-05-20 03:00:00 13.8 9 Noroeste 25 Oeste 0 -- -- 52
2020-05-20 02:00:00 15.1 13 Noroeste 24 Oeste 0 -- -- 47
2020-05-20 01:00:00 14.8 6 Este 26 Sur 0 -- -- 47
2020-05-20 00:00:00 14.3 6 Sudoeste 23 Nordeste 0 -- -- 52
2020-05-19 23:00:00 13.2 6 Noroeste 17 Oeste 0 -- -- 56
2020-05-19 22:00:00 14.6 5 Noroeste 12 Sur 0 -- -- 53
2020-05-19 21:00:00 17.2 4 Este 21 Oeste 0 -- -- 49
2020-05-19 20:00:00 20 13 Noroeste 37 Noroeste 0.2 -- -- 41
2020-05-19 19:00:00 21.9 14 Noroeste 36 Oeste 0 -- -- 35
2020-05-19 18:00:00 22.2 19 Oeste 37 Oeste 0 -- -- 36
2020-05-19 17:00:00 23 18 Noroeste 40 Oeste 0 -- -- 33
2020-05-19 16:00:00 22.4 21 Noroeste 39 Oeste 0 -- -- 35
2020-05-19 15:00:00 23 12 Sudoeste 30 Oeste 0 -- -- 34
2020-05-19 14:00:00 21.9 13 Oeste 31 Oeste 0 -- -- 37
2020-05-19 13:00:00 21.3 14 Noroeste 33 Noroeste 0 -- -- 36
2020-05-19 12:00:00 21.3 7 Sudeste 36 Noroeste 0 -- -- 34
2020-05-19 11:00:00 20.7 6 Sudoeste 31 Oeste 0 -- -- 39
2020-05-19 10:00:00 18.9 15 Oeste 28 Oeste 0 -- -- 39
2020-05-19 09:00:00 16.7 8 Este 23 Sudeste 0 -- -- 45
2020-05-19 08:00:00 10.9 3 Oeste 9 Sur 0 -- -- 61
2020-05-19 07:00:00 8.3 4 Noroeste 8 Noroeste 0 -- -- 64
2020-05-19 06:00:00 9.2 5 Noroeste 10 Este 0 -- -- 62
2020-05-19 05:00:00 11.8 4 Nordeste 28 Oeste 0 -- -- 52
2020-05-19 04:00:00 13.3 17 Oeste 37 Sudoeste 0.2 -- -- 46
2020-05-19 03:00:00 13.1 17 Oeste 28 Oeste 0 -- -- 47
2020-05-19 02:00:00 12.5 6 Noroeste 25 Oeste 0 -- -- 50
2020-05-19 01:00:00 10 6 Noroeste 12 Norte 0 -- -- 60
2020-05-19 00:00:00 10.9 5 Noroeste 12 Norte 0 -- -- 52
2020-05-18 23:00:00 11.8 7 Noroeste 15 Noroeste 0 -- -- 52
2020-05-18 22:00:00 13.6 6 Noroeste 16 Noroeste 0 -- -- 48
2020-05-18 21:00:00 15.5 9 Noroeste 27 Norte 0 -- -- 43
2020-05-18 20:00:00 18.4 8 Norte 22 Norte 0 -- -- 37
2020-05-18 19:00:00 19.9 5 Sudeste 10 Noroeste 0 -- -- 44
2020-05-18 18:00:00 18.9 4 Sudeste 23 Este 0 -- -- 44
2020-05-18 17:00:00 19.9 4 Sudoeste 16 Este 0.2 -- -- 42
2020-05-18 16:00:00 19.7 9 Sur 23 Este 0 -- -- 42
2020-05-18 15:00:00 20.1 9 Sur 22 Este 0 -- -- 39
2020-05-18 14:00:00 19.9 12 Este 27 Este 0 -- -- 40
2020-05-18 13:00:00 19.6 12 Este 25 Este 0 -- -- 38
2020-05-18 12:00:00 19.1 13 Este 27 Este 0 -- -- 37
2020-05-18 11:00:00 17.9 12 Este 22 Este 0.2 -- -- 38
2020-05-18 10:00:00 15.7 3 Sudeste 10 Este 0 -- -- 46
2020-05-18 09:00:00 12.7 0 Calma 9 Este 0 -- -- 57
2020-05-18 08:00:00 8.1 3 Sudoeste 13 Noroeste 0 -- -- 65
2020-05-18 07:00:00 5.8 5 Noroeste 12 Noroeste 0 -- -- 69
2020-05-18 06:00:00 6.5 3 Noroeste 15 Noroeste 0 -- -- 65
2020-05-18 05:00:00 6.7 6 Noroeste 13 Oeste 0 -- -- 60
2020-05-18 04:00:00 6.9 7 Noroeste 13 Noroeste 0 -- -- 60
2020-05-18 03:00:00 7 5 Oeste 10 Noroeste 0.2 -- -- 58
2020-05-18 02:00:00 7.3 6 Oeste 20 Norte 0 -- -- 61
2020-05-18 01:00:00 6.9 4 Oeste 7 Noroeste 0 -- -- 61
2020-05-18 00:00:00 7.9 5 Noroeste 13 Oeste 0 -- -- 62
2020-05-17 23:00:00 9.7 0 Calma 9 Este 0 -- -- 63
2020-05-17 22:00:00 12.1 6 Noroeste 22 Oeste 0 -- -- 45
2020-05-17 21:00:00 14.2 5 Norte 14 Este 0.2 -- -- 43
2020-05-17 20:00:00 17.3 9 Este 18 Sudeste 0 -- -- 48
2020-05-17 19:00:00 18.2 7 Sudeste 20 Sudeste 0 -- -- 44
2020-05-17 18:00:00 18.9 7 Sudeste 23 Este 0 -- -- 43
2020-05-17 17:00:00 19.2 11 Sudeste 27 Este 0.2 -- -- 44
2020-05-17 16:00:00 19.4 9 Sudeste 26 Este 0 -- -- 46
2020-05-17 15:00:00 18.5 15 Este 28 Este 0 -- -- 54
2020-05-17 14:00:00 18.6 6 Sudeste 19 Este 0.2 -- -- 44
2020-05-17 13:00:00 16 13 Oeste 28 Norte 0 -- -- 31
2020-05-17 12:00:00 16.5 13 Oeste 41 Sudoeste 0 -- -- 34
2020-05-17 11:00:00 15.3 14 Noroeste 33 Oeste 0 -- -- 39
2020-05-17 10:00:00 13.8 18 Oeste 33 Oeste 0.2 -- -- 51
2020-05-17 09:00:00 12.1 15 Noroeste 28 Oeste 0 -- -- 56
2020-05-17 08:00:00 10.6 6 Este 24 Sudoeste 0 -- -- 71
2020-05-17 07:00:00 8.5 4 Nordeste 15 Sudeste 0 -- -- 79
2020-05-17 06:00:00 8.1 4 Oeste 32 Este 0 -- -- 82
2020-05-17 05:00:00 8.9 6 Sudoeste 21 Sudoeste 0.2 -- -- 77
2020-05-17 04:00:00 7.4 6 Nordeste 21 Sudeste 0 -- -- 84
2020-05-17 03:00:00 6.3 4 Noroeste 8 Nordeste 0 -- -- 91
2020-05-17 02:00:00 7.1 3 Norte 10 Norte 0 -- -- 91
2020-05-17 01:00:00 7 5 Noroeste 12 Noroeste 0 -- -- 89
2020-05-17 00:00:00 7.5 0 Calma 9 Oeste 0 -- -- 89
2020-05-16 23:00:00 8.4 6 Este 13 Sudeste 0.2 -- -- 88
2020-05-16 22:00:00 8.7 5 Sudoeste 13 Oeste 0 -- -- 89
2020-05-16 21:00:00 9.4 3 Noroeste 16 Noroeste 0 -- -- 89
2020-05-16 20:00:00 10.7 8 Este 19 Sudeste 0.2 -- -- 80
2020-05-16 19:00:00 12 4 Noroeste 11 Sudoeste 0 -- -- 78
2020-05-16 18:00:00 12.7 2 Sur 17 Este 0 -- -- 78
2020-05-16 17:00:00 12.3 4 Este 10 Noroeste 0.2 -- -- 80
2020-05-16 16:00:00 11.1 5 Oeste 9 Oeste 0 -- -- 92
2020-05-16 15:00:00 11.4 4 Oeste 14 Oeste 0.2 -- -- 89
2020-05-16 14:00:00 14 7 Noroeste 11 Noroeste 0 -- -- 69
2020-05-16 13:00:00 14.8 5 Este 24 Este 0.2 -- -- 65
2020-05-16 12:00:00 14.5 7 Sudeste 16 Sudeste 0 -- -- 68
2020-05-16 11:00:00 11.7 2 Sudoeste 8 Este 0 -- -- 87
2020-05-16 10:00:00 10.6 5 Este 8 Este 0.2 -- -- 88
2020-05-16 09:00:00 8.9 0 Calma -- -- 0 -- -- 96
2020-05-16 08:00:00 7.4 0 Calma 4 Nordeste 0.2 -- -- 97
2020-05-16 07:00:00 6.8 0 Calma 6 Noroeste 0 -- -- 97
2020-05-16 06:00:00 6.6 5 Noroeste 9 Noroeste 0 -- -- 97
2020-05-16 05:00:00 5.9 4 Noroeste 6 Noroeste 0 -- -- 97
2020-05-16 04:00:00 6.3 6 Noroeste 12 Noroeste 0.2 -- -- 94
2020-05-16 03:00:00 7 7 Noroeste 13 Oeste 0 -- -- 95
2020-05-16 02:00:00 7.7 4 Norte 6 Oeste 0 -- -- 97
2020-05-16 01:00:00 7.9 2 Sudeste 9 Sur 0.2 -- -- 96
2020-05-16 00:00:00 8.2 5 Noroeste 28 Oeste 0 -- -- 92
2020-05-15 23:00:00 9.9 12 Noroeste 21 Noroeste 0.2 -- -- 93
2020-05-15 22:00:00 10.4 0 Calma 8 Noroeste 0 -- -- 94
2020-05-15 21:00:00 11 4 Noroeste 6 Noroeste 0.2 -- -- 92
2020-05-15 20:00:00 12.1 4 Oeste 10 Sudoeste 0 -- -- 87
2020-05-15 19:00:00 12.8 3 Sur 12 Nordeste 0.2 -- -- 82
2020-05-15 18:00:00 12.3 8 Este 22 Este 0 -- -- 82
2020-05-15 17:00:00 13.2 14 Este 28 Este 0 -- -- 76
2020-05-15 16:00:00 13.7 10 Este 26 Este 0.2 -- -- 74
2020-05-15 15:00:00 14.6 9 Sudeste 22 Este 0 -- -- 68
2020-05-15 14:00:00 15.8 11 Este 20 Sudeste 0.2 -- -- 66
2020-05-15 13:00:00 13.7 3 Sudeste 9 Este 0 -- -- 74
2020-05-15 12:00:00 12 5 Sudeste 11 Este 0 -- -- 76
2020-05-15 11:00:00 10.5 5 Este 10 Este 0.2 -- -- 84
2020-05-15 10:00:00 9.7 0 Calma -- -- 0 -- -- 94
2020-05-15 09:00:00 8.2 0 Calma 5 Noroeste 0 -- -- 98
2020-05-15 08:00:00 7.3 3 Oeste 6 Oeste 0 -- -- 98
2020-05-15 07:00:00 6.6 0 Calma 5 Este 0 -- -- 98
2020-05-15 06:00:00 6.6 0 Calma 6 Norte 0.2 -- -- 98
2020-05-15 05:00:00 6.3 3 Noroeste 8 Noroeste 0 -- -- 98
2020-05-15 04:00:00 6.2 4 Este 6 Este 0 -- -- 97
2020-05-15 03:00:00 6.7 4 Norte 6 Noroeste 0 -- -- 97
2020-05-15 02:00:00 7 0 Calma 5 Noroeste 0 -- -- 98
2020-05-15 01:00:00 7.2 0 Calma 6 Sudeste 0 -- -- 97
2020-05-15 00:00:00 7.2 0 Calma 5 Noroeste 0.2 -- -- 95
2020-05-14 23:00:00 7.5 4 Noroeste 7 Oeste 0 -- -- 96
2020-05-14 22:00:00 7.6 0 Calma 5 Noroeste 0 -- -- 94
2020-05-14 21:00:00 8.4 3 Noroeste 5 Oeste 0 -- -- 93
2020-05-14 20:00:00 8.9 3 Oeste 5 Este 0 -- -- 93
2020-05-14 19:00:00 9.1 3 Este 12 Este 0 -- -- 91
2020-05-14 18:00:00 9.6 3 Sur 5 Sudoeste 0 -- -- 91
2020-05-14 17:00:00 9.9 3 Sudoeste 5 Este 0.2 -- -- 91
2020-05-14 16:00:00 10.2 2 Sudeste 6 Sudoeste 0 -- -- 88
2020-05-14 15:00:00 10.8 3 Nordeste 19 Este 0 -- -- 82
2020-05-14 14:00:00 12.2 9 Sudeste 23 Este 0 -- -- 80
2020-05-14 13:00:00 14.1 14 Este 27 Este 0 -- -- 63
2020-05-14 12:00:00 14.6 12 Sudeste 24 Sur 0 -- -- 67
2020-05-14 11:00:00 14.4 5 Este 12 Este 0 -- -- 68
2020-05-14 10:00:00 11.9 0 Calma 5 Sudeste 0 -- -- 80
2020-05-14 09:00:00 10.3 0 Calma 5 Noroeste 0.2 -- -- 87
2020-05-14 08:00:00 8.4 0 Calma 6 Norte 0 -- -- 94
2020-05-14 07:00:00 8 4 Noroeste 7 Oeste 0 -- -- 94
2020-05-14 06:00:00 8.3 5 Noroeste 9 Noroeste 0 -- -- 94
2020-05-14 05:00:00 9.2 2 Sur 9 Noroeste 0 -- -- 92
2020-05-14 04:00:00 10 0 Calma 7 Noroeste 0.2 -- -- 94
2020-05-14 03:00:00 10.5 0 Calma 4 Este 0 -- -- 92
2020-05-14 02:00:00 10.6 2 Este 5 Nordeste 0 -- -- 90
2020-05-14 01:00:00 11 0 Calma 8 Este 0 -- -- 88
2020-05-14 00:00:00 11.4 2 Sudeste 10 Este 0 -- -- 87
2020-05-13 23:00:00 11.9 0 Calma 10 Este 0.2 -- -- 83
2020-05-13 22:00:00 12.1 5 Este 8 Este 0 -- -- 80
2020-05-13 21:00:00 12.9 4 Este 20 Este 0 -- -- 75
2020-05-13 20:00:00 13.8 8 Este 22 Este 0.2 -- -- 71
2020-05-13 19:00:00 14.9 10 Este 23 Este 0 -- -- 68
2020-05-13 18:00:00 16.5 11 Sudeste 22 Sudeste 0.2 -- -- 62
2020-05-13 17:00:00 18.4 7 Sur 22 Sudeste 0.2 -- -- 54
2020-05-13 16:00:00 17.5 13 Oeste 25 Noroeste 0.4 -- -- 58
2020-05-13 15:00:00 16.9 14 Sudoeste 25 Oeste 0.2 -- -- 55
2020-05-13 14:00:00 15.2 14 Oeste 26 Oeste 0.6 -- -- 62
2020-05-13 13:00:00 14.6 16 Sudoeste 27 Sudoeste 0.6 -- -- 63
2020-05-13 12:00:00 14.8 10 Sudeste 22 Sudeste 0.8 -- -- 71
2020-05-13 11:00:00 12.3 3 Noroeste 8 Noroeste 0.4 -- -- 80
2020-05-13 10:00:00 9.5 2 Oeste 6 Oeste 0.2 -- -- 96
2020-05-13 09:00:00 8.6 0 Calma 8 Norte 0.2 -- -- 96
2020-05-13 08:00:00 8.1 3 Noroeste 6 Norte 0.2 -- -- 97
2020-05-13 07:00:00 8.1 3 Este 8 Norte 0.2 -- -- 97
2020-05-13 06:00:00 8 3 Este 10 Nordeste 0.2 -- -- 96
2020-05-13 05:00:00 8 4 Noroeste 8 Noroeste 0.2 -- -- 95
2020-05-13 04:00:00 8.3 4 Noroeste 11 Noroeste 0 -- -- 93
2020-05-13 03:00:00 9.1 3 Nordeste 9 Este 0.4 -- -- 92
2020-05-13 02:00:00 10 6 Sudeste 16 Nordeste 0.4 -- -- 91
2020-05-13 01:00:00 10.6 5 Nordeste 10 Nordeste 0.2 -- -- 91
2020-05-13 00:00:00 10.7 4 Noroeste 8 Sudoeste 0 -- -- 93
2020-05-12 23:00:00 11.3 3 Este 8 Norte 0 -- -- 91
2020-05-12 22:00:00 11.6 3 Nordeste 13 Este 0 -- -- 89
2020-05-12 21:00:00 12.2 4 Este 12 Este 0 -- -- 86
2020-05-12 20:00:00 12.7 6 Este 18 Este 0 -- -- 83
2020-05-12 19:00:00 14.4 11 Sur 23 Sur 0 -- -- 75
2020-05-12 18:00:00 15.6 9 Este 23 Este 0 -- -- 72
2020-05-12 17:00:00 16.4 10 Sur 27 Este 0 -- -- 71
2020-05-12 16:00:00 17.8 16 Este 46 Este 0 -- -- 63
2020-05-12 15:00:00 17 11 Este 18 Este 0 -- -- 64
2020-05-12 14:00:00 16.2 14 Este 32 Sudoeste 0 -- -- 67
2020-05-12 13:00:00 17.3 17 Sudoeste 35 Oeste 0 -- -- 47
2020-05-12 12:00:00 16.1 6 Este 19 Sudeste 0 -- -- 62
2020-05-12 11:00:00 14 7 Sudeste 19 Este 0 -- -- 71
2020-05-12 10:00:00 12.1 9 Este 17 Sudeste 0 -- -- 79
2020-05-12 09:00:00 9 0 Calma 7 Este 0 -- -- 80
2020-05-12 08:00:00 6 3 Noroeste 8 Norte 0 -- -- 92
2020-05-12 07:00:00 4.9 3 Oeste 10 Noroeste 0 -- -- 93
2020-05-12 06:00:00 5.6 2 Nordeste 14 Noroeste 0 -- -- 92
2020-05-12 05:00:00 5.6 5 Noroeste 10 Noroeste 0 -- -- 94
2020-05-12 04:00:00 6 2 Oeste 8 Nordeste 0 -- -- 94
2020-05-12 03:00:00 6.9 2 Oeste 8 Noroeste 0 -- -- 90
2020-05-12 02:00:00 7.7 2 Noroeste 8 Noroeste 0 -- -- 90
2020-05-12 01:00:00 8.6 3 Oeste 8 Noroeste 0 -- -- 90
2020-05-12 00:00:00 10 3 Nordeste 9 Noroeste 0 -- -- 87
2020-05-11 23:00:00 10.9 5 Oeste 12 Oeste 0 -- -- 87
2020-05-11 22:00:00 11.5 2 Nordeste 6 Noroeste 0 -- -- 85
2020-05-11 21:00:00 12.7 0 Calma 23 Sudoeste 0 -- -- 77
2020-05-11 20:00:00 13.8 8 Sudoeste 32 Sudoeste 0 -- -- 66
2020-05-11 19:00:00 14.4 19 Oeste 32 Oeste 0 -- -- 63
2020-05-11 18:00:00 14.5 15 Oeste 36 Oeste 0 -- -- 63
2020-05-11 17:00:00 14.2 7 Sudoeste 22 Sudoeste 0 -- -- 67
2020-05-11 16:00:00 13 8 Oeste 19 Oeste 0 -- -- 69
2020-05-11 15:00:00 12.5 8 Noroeste 25 Oeste 0 -- -- 72
2020-05-11 14:00:00 12.4 7 Este 13 Este 0 -- -- 82
2020-05-11 13:00:00 11.6 5 Este 18 Este 0 -- -- 87
2020-05-11 12:00:00 10.6 8 Este 17 Este 0 -- -- 91
2020-05-11 11:00:00 10.1 6 Este 16 Este 0 -- -- 92
2020-05-11 10:00:00 9.4 10 Este 20 Este 0 -- -- 92
2020-05-11 09:00:00 7.5 0 Calma 8 Este 0 -- -- 99
2020-05-11 08:00:00 6.6 4 Sudeste 11 Este 0 -- -- 99
2020-05-11 07:00:00 5.7 8 Este 18 Este 0 -- -- 99
2020-05-11 06:00:00 6 3 Norte 7 Norte 0 -- -- 98
2020-05-11 05:00:00 6.4 2 Sudeste 6 Norte 0 -- -- 98
2020-05-11 04:00:00 6.8 3 Noroeste 4 Noroeste 0 -- -- 98
2020-05-11 03:00:00 7 0 Calma 5 Noroeste 0.2 -- -- 97
2020-05-11 02:00:00 7.2 0 Calma 9 Este 0 -- -- 97
2020-05-11 01:00:00 7.7 2 Oeste 7 Este 0.2 -- -- 96
2020-05-11 00:00:00 8.1 0 Calma 4 Este 1 -- -- 96
2020-05-10 23:00:00 8.4 0 Calma 4 Oeste 1.4 -- -- 98
2020-05-10 22:00:00 8.5 0 Calma 4 Sur 0.6 -- -- 97
2020-05-10 21:00:00 8.5 2 Noroeste 5 Sudoeste 2.2 -- -- 97
2020-05-10 20:00:00 8.6 2 Sudeste 8 Noroeste 2.8 -- -- 96
2020-05-10 19:00:00 8.9 4 Noroeste 9 Oeste 3.6 -- -- 95
2020-05-10 18:00:00 9.6 3 Este 8 Este 1 -- -- 91
2020-05-10 17:00:00 9.1 4 Sudoeste 23 Oeste 3.8 -- -- 91
2020-05-10 16:00:00 9.8 11 Este 29 Este 7 -- -- 90
2020-05-10 15:00:00 11.2 17 Sudeste 46 Este 3.8 -- -- 85
2020-05-10 14:00:00 11.1 8 Nordeste 24 Este 10.4 -- -- 89
2020-05-10 13:00:00 11.7 10 Este 34 Este 3.2 -- -- 91
2020-05-10 12:00:00 11.7 14 Este 42 Este 1.8 -- -- 91
2020-05-10 11:00:00 11.5 8 Sudeste 24 Este 4.8 -- -- 95
2020-05-10 10:00:00 10.1 6 Este 18 Sudoeste 12.6 -- -- 97
2020-05-10 09:00:00 9.9 0 Calma 5 Sudoeste 1 -- -- 94
2020-05-10 08:00:00 9.7 3 Nordeste 11 Oeste 0 -- -- 93
2020-05-10 07:00:00 9 6 Noroeste 10 Noroeste 0 -- -- 94
2020-05-10 06:00:00 9.6 2 Este 10 Norte 0 -- -- 93
2020-05-10 05:00:00 10.8 3 Norte 7 Nordeste 0 -- -- 95
2020-05-10 04:00:00 11.5 0 Calma 11 Este 0 -- -- 95
2020-05-10 03:00:00 11.9 5 Este 11 Este 0 -- -- 94
2020-05-10 02:00:00 11.9 0 Calma 7 Este 0 -- -- 94
2020-05-10 01:00:00 12.1 6 Este 9 Este 0 -- -- 94
2020-05-10 00:00:00 12.5 2 Nordeste 5 Sudeste 0 -- -- 92
2020-05-09 23:00:00 12.2 0 Calma 5 Nordeste 0 -- -- 89
2020-05-09 22:00:00 12.9 0 Calma 5 Este 0 -- -- 85
2020-05-09 21:00:00 14.7 3 Este 7 Este 0 -- -- 78
2020-05-09 20:00:00 15.7 4 Este 18 Este 0 -- -- 73
2020-05-09 19:00:00 16.1 14 Este 29 Este 0 -- -- 72
2020-05-09 18:00:00 18.3 8 Este 23 Este 0 -- -- 61
2020-05-09 17:00:00 18.8 11 Este 22 Este 0 -- -- 58
2020-05-09 16:00:00 16.1 8 Este 19 Sudeste 0 -- -- 68
2020-05-09 15:00:00 15.1 10 Este 22 Este 0 -- -- 73
2020-05-09 14:00:00 16.3 12 Este 31 Este 0 -- -- 64
2020-05-09 13:00:00 18.4 6 Este 21 Sudeste 0 -- -- 48
2020-05-09 12:00:00 16.3 8 Sudeste 21 Este 0 -- -- 58
2020-05-09 11:00:00 16.8 4 Sudeste 11 Sudeste 0 -- -- 52
2020-05-09 10:00:00 15.1 2 Este 9 Norte 0 -- -- 57
2020-05-09 09:00:00 12.2 3 Norte 9 Nordeste 0 -- -- 66
2020-05-09 08:00:00 9.7 4 Sudoeste 17 Noroeste 0 -- -- 71
2020-05-09 07:00:00 8.7 6 Noroeste 17 Noroeste 0 -- -- 62
2020-05-09 06:00:00 8.2 3 Oeste 8 Norte 0 -- -- 65
2020-05-09 05:00:00 8.7 3 Oeste 10 Noroeste 0 -- -- 63
2020-05-09 04:00:00 8.9 0 Calma 11 Noroeste 0 -- -- 66
2020-05-09 03:00:00 9.4 0 Calma 13 Oeste 0 -- -- 74
2020-05-09 02:00:00 9.5 6 Noroeste 14 Noroeste 0 -- -- 77
2020-05-09 01:00:00 10.1 8 Noroeste 12 Noroeste 0 -- -- 74
2020-05-09 00:00:00 10.7 5 Noroeste 11 Noroeste 0 -- -- 73
2020-05-08 23:00:00 11.7 5 Noroeste 10 Noroeste 0 -- -- 70
2020-05-08 22:00:00 13.1 5 Noroeste 12 Noroeste 0 -- -- 67
2020-05-08 21:00:00 16.3 0 Calma 15 Este 0 -- -- 56
2020-05-08 20:00:00 19.1 9 Este 21 Este 0 -- -- 48
2020-05-08 19:00:00 19.9 9 Sudoeste 30 Sudoeste 0 -- -- 42
2020-05-08 18:00:00 21.5 12 Sudoeste 26 Este 0 -- -- 37
2020-05-08 17:00:00 22.2 15 Este 27 Este 0 -- -- 37
2020-05-08 16:00:00 22 11 Sudeste 20 Este 0 -- -- 36
2020-05-08 15:00:00 21.6 12 Sudoeste 28 Sudoeste 0 -- -- 36
2020-05-08 14:00:00 21 10 Sudoeste 33 Sudoeste 0 -- -- 36
2020-05-08 13:00:00 20.5 7 Sur 26 Sur 0 -- -- 38
2020-05-08 12:00:00 20.2 8 Sudeste 17 Sur 0 -- -- 45
2020-05-08 11:00:00 19.2 11 Este 19 Este 0 -- -- 46
2020-05-08 10:00:00 17.4 7 Sudeste 12 Sudeste 0 -- -- 54
2020-05-08 09:00:00 14.2 3 Sudeste 11 Oeste 0 -- -- 67
2020-05-08 08:00:00 11.2 8 Noroeste 17 Noroeste 0 -- -- 73
2020-05-08 07:00:00 10 4 Noroeste 10 Noroeste 0 -- -- 89
2020-05-08 06:00:00 9.5 6 Oeste 13 Noroeste 0 -- -- 90
2020-05-08 05:00:00 9.8 3 Noroeste 9 Noroeste 0 -- -- 90
2020-05-08 04:00:00 10.6 2 Nordeste 13 Noroeste 0 -- -- 90
2020-05-08 03:00:00 10.9 2 Oeste 12 Noroeste 0 -- -- 88
2020-05-08 02:00:00 11.8 8 Noroeste 13 Oeste 0 -- -- 87
2020-05-08 01:00:00 11.7 4 Noroeste 8 Noroeste 0 -- -- 89
2020-05-08 00:00:00 12.1 0 Calma 7 Norte 0 -- -- 87
2020-05-07 23:00:00 13.2 0 Calma 10 Norte 0 -- -- 85
2020-05-07 22:00:00 14.7 2 Este 9 Sudeste 0 -- -- 81
2020-05-07 21:00:00 16.4 4 Este 18 Este 0 -- -- 75
2020-05-07 20:00:00 17.3 8 Este 19 Este 0 -- -- 72
2020-05-07 19:00:00 18.4 9 Este 25 Este 0 -- -- 68
2020-05-07 18:00:00 19.1 12 Este 26 Este 0 -- -- 64
2020-05-07 17:00:00 20.1 15 Este 26 Este 0 -- -- 60
2020-05-07 16:00:00 21.5 11 Sudeste 27 Este 0 -- -- 55
2020-05-07 15:00:00 20.8 12 Este 28 Este 0 -- -- 55
2020-05-07 14:00:00 21.6 15 Este 26 Este 0 -- -- 53
2020-05-07 13:00:00 20.1 13 Este 32 Este 0 -- -- 61
2020-05-07 12:00:00 19.7 14 Este 28 Este 0 -- -- 62
2020-05-07 11:00:00 18.6 7 Este 19 Este 0 -- -- 63
2020-05-07 10:00:00 17.7 8 Este 14 Este 0 -- -- 65
2020-05-07 09:00:00 14.7 0 Calma -- -- 0 -- -- 78
2020-05-07 08:00:00 11.9 0 Calma 11 Noroeste 0 -- -- 87
2020-05-07 07:00:00 11.7 6 Noroeste 12 Noroeste 0 -- -- 86
2020-05-07 06:00:00 11.6 0 Calma 6 Noroeste 0 -- -- 88
2020-05-07 05:00:00 11.2 0 Calma 10 Noroeste 0 -- -- 88
2020-05-07 04:00:00 11.4 5 Noroeste 15 Noroeste 0 -- -- 85
2020-05-07 03:00:00 11.4 7 Noroeste 14 Noroeste 0 -- -- 86
2020-05-07 02:00:00 12.1 5 Noroeste 14 Noroeste 0 -- -- 84
2020-05-07 01:00:00 13.3 5 Noroeste 11 Noroeste 0 -- -- 81
2020-05-07 00:00:00 15.3 0 Calma 5 Oeste 0 -- -- 76
2020-05-06 23:00:00 15.8 3 Oeste 9 Este 0 -- -- 73
2020-05-06 22:00:00 16.6 5 Este 11 Nordeste 0 -- -- 69
2020-05-06 21:00:00 17.1 5 Sudeste 17 Este 0 -- -- 68
2020-05-06 20:00:00 18.1 8 Este 24 Este 0 -- -- 64
2020-05-06 19:00:00 20.3 13 Este 25 Este 0 -- -- 56
2020-05-06 18:00:00 21.8 12 Este 25 Este 0 -- -- 50
2020-05-06 17:00:00 20.2 10 Este 24 Este 0 -- -- 52
2020-05-06 16:00:00 21.8 12 Este 24 Este 0 -- -- 51
2020-05-06 15:00:00 19.5 13 Este 29 Este 0 -- -- 59
2020-05-06 14:00:00 20.5 16 Este 31 Este 0 -- -- 54
2020-05-06 13:00:00 21.7 6 Noroeste 31 Noroeste 0 -- -- 35
2020-05-06 12:00:00 20.8 4 Este 18 Este 0 -- -- 39
2020-05-06 11:00:00 19.6 7 Este 15 Este 0 -- -- 50
2020-05-06 10:00:00 16.5 4 Sudeste 8 Este 0 -- -- 48
2020-05-06 09:00:00 13.1 0 Calma 8 Noroeste 0 -- -- 64
2020-05-06 08:00:00 8.3 2 Noroeste 5 Noroeste 0 -- -- 68
2020-05-06 07:00:00 7.5 2 Oeste 6 Noroeste 0 -- -- 68
2020-05-06 06:00:00 8.3 4 Norte 13 Noroeste 0 -- -- 66
2020-05-06 05:00:00 7.9 5 Noroeste 12 Noroeste 0 -- -- 70
2020-05-06 04:00:00 8.6 4 Noroeste 13 Noroeste 0 -- -- 70
2020-05-06 03:00:00 9.1 5 Noroeste 13 Oeste 0 -- -- 69
2020-05-06 02:00:00 9.8 5 Noroeste 14 Oeste 0 -- -- 66
2020-05-06 01:00:00 10.6 6 Noroeste 16 Noroeste 0 -- -- 73
2020-05-06 00:00:00 11.5 8 Noroeste 14 Noroeste 0 -- -- 71
2020-05-05 23:00:00 12.7 9 Noroeste 15 Noroeste 0 -- -- 73
2020-05-05 22:00:00 14.5 5 Noroeste 10 Noroeste 0 -- -- 77
2020-05-05 21:00:00 17 2 Este 13 Sudeste 0 -- -- 74
2020-05-05 20:00:00 18.3 6 Este 18 Este 0 -- -- 70
2020-05-05 19:00:00 19.2 10 Este 18 Este 0 -- -- 64
2020-05-05 18:00:00 20 7 Este 17 Este 0 -- -- 60
2020-05-05 17:00:00 20.9 6 Sudeste 19 Sudeste 0 -- -- 57
2020-05-05 16:00:00 21.6 7 Sudeste 21 Este 0 -- -- 54
2020-05-05 15:00:00 22 10 Este 27 Este 0 -- -- 52
2020-05-05 14:00:00 22.7 11 Sudeste 26 Este 0 -- -- 50
2020-05-05 13:00:00 22.7 9 Sudeste 26 Este 0 -- -- 48
2020-05-05 12:00:00 22.6 11 Este 27 Este 0 -- -- 48
2020-05-05 11:00:00 19.8 7 Sudeste 15 Sudeste 0 -- -- 54
2020-05-05 10:00:00 17.3 4 Sudeste 9 Sudeste 0 -- -- 57
2020-05-05 09:00:00 14 2 Sudeste 6 Noroeste 0 -- -- 78
2020-05-05 08:00:00 10.5 2 Noroeste 8 Noroeste 0 -- -- 82
2020-05-05 07:00:00 10.2 3 Noroeste 8 Norte 0 -- -- 81
2020-05-05 06:00:00 10.7 3 Noroeste 7 Noroeste 0 -- -- 77
2020-05-05 05:00:00 11.2 3 Noroeste 9 Noroeste 0 -- -- 75
2020-05-05 04:00:00 11.7 3 Norte 9 Noroeste 0 -- -- 76
2020-05-05 03:00:00 12.2 3 Noroeste 9 Norte 0 -- -- 79
2020-05-05 02:00:00 13.2 3 Norte 8 Noroeste 0 -- -- 80
2020-05-05 01:00:00 14.3 2 Nordeste 9 Nordeste 0 -- -- 77
2020-05-05 00:00:00 14.7 5 Noroeste 10 Norte 0 -- -- 77
2020-05-04 23:00:00 16.1 4 Este 6 Este 0 -- -- 76
2020-05-04 22:00:00 17.7 4 Norte 10 Sudoeste 0 -- -- 71
2020-05-04 21:00:00 19.9 3 Sudeste 17 Sudoeste 0 -- -- 63
2020-05-04 20:00:00 22.2 10 Noroeste 24 Oeste 0 -- -- 56
2020-05-04 19:00:00 23.6 8 Oeste 24 Sudoeste 0 -- -- 53
2020-05-04 18:00:00 24.5 10 Oeste 33 Sudoeste 0 -- -- 48
2020-05-04 17:00:00 24 16 Sudoeste 33 Sudoeste 0 -- -- 49
2020-05-04 16:00:00 24.9 15 Sudeste 27 Sur 0 -- -- 46
2020-05-04 15:00:00 24.8 8 Sur 31 Este 0 -- -- 47
2020-05-04 14:00:00 23 16 Este 28 Este 0 -- -- 53
2020-05-04 13:00:00 23.7 10 Este 24 Este 0 -- -- 55
2020-05-04 12:00:00 22.4 13 Este 24 Este 0 -- -- 45
2020-05-04 11:00:00 20.9 9 Este 17 Este 0 -- -- 47
2020-05-04 10:00:00 17.8 4 Sudeste 7 Sudeste 0 -- -- 58
2020-05-04 09:00:00 13.9 0 Calma 3 Sudeste 0 -- -- 74
2020-05-04 08:00:00 10.8 2 Norte 5 Este 0 -- -- 82
2020-05-04 07:00:00 9.4 0 Calma 4 Noroeste 0 -- -- 83
2020-05-04 06:00:00 9.5 0 Calma 6 Noroeste 0 -- -- 88
2020-05-04 05:00:00 9.4 3 Noroeste 8 Norte 0 -- -- 89
2020-05-04 04:00:00 9.8 4 Noroeste 9 Norte 0 -- -- 90
2020-05-04 03:00:00 10.2 0 Calma 4 Oeste 0 -- -- 88
2020-05-04 02:00:00 10.9 0 Calma 9 Noroeste 0 -- -- 87
2020-05-04 01:00:00 11.7 6 Noroeste 15 Noroeste 0 -- -- 85
2020-05-04 00:00:00 12.1 8 Noroeste 14 Noroeste 0 -- -- 84
2020-05-03 23:00:00 13.2 4 Noroeste 11 Norte 0 -- -- 80
2020-05-03 22:00:00 15 5 Noroeste 8 Noroeste 0 -- -- 78
2020-05-03 21:00:00 17.5 4 Este 14 Este 0 -- -- 71
2020-05-03 20:00:00 18.9 8 Este 22 Este 0 -- -- 67
2020-05-03 19:00:00 20.3 12 Este 22 Sudeste 0 -- -- 61
2020-05-03 18:00:00 20.5 10 Este 22 Este 0 -- -- 56
2020-05-03 17:00:00 21.5 9 Este 24 Este 0 -- -- 52
2020-05-03 16:00:00 20.6 8 Sudeste 33 Este 0 -- -- 54
2020-05-03 15:00:00 21.5 13 Este 27 Este 0 -- -- 50
2020-05-03 14:00:00 21.1 9 Este 24 Este 0 -- -- 51
2020-05-03 13:00:00 20.2 13 Este 25 Este 0 -- -- 48
2020-05-03 12:00:00 19.5 15 Este 26 Este 0 -- -- 54
2020-05-03 11:00:00 18.2 9 Este 14 Este 0 -- -- 49
2020-05-03 10:00:00 14.4 3 Este 9 Este 0 -- -- 62
2020-05-03 09:00:00 12.1 4 Este 8 Este 0 -- -- 68
2020-05-03 08:00:00 9.1 2 Este 5 Este 0 -- -- 76
2020-05-03 07:00:00 8 0 Calma 8 Este 0 -- -- 78
2020-05-03 06:00:00 8.1 3 Este 9 Norte 0 -- -- 81
2020-05-03 05:00:00 8.2 0 Calma 8 Noroeste 0 -- -- 83
2020-05-03 04:00:00 8.5 3 Noroeste 10 Oeste 0 -- -- 82
2020-05-03 03:00:00 9.2 3 Sudoeste 6 Noroeste 0 -- -- 83
2020-05-03 02:00:00 10 3 Oeste 10 Noroeste 0 -- -- 81
2020-05-03 01:00:00 11.2 5 Norte 11 Noroeste 0 -- -- 80
2020-05-03 00:00:00 12.7 4 Noroeste 8 Noroeste 0 -- -- 86